sensor_id;sensor_type;location;lat;lon;timestamp;P1;durP1;ratioP1;P2;durP2;ratioP2
63284;SDS011;49409;55.708;37.522;2022-09-09T00:01:00;1.80;;;1.17;;
63284;SDS011;49409;55.708;37.522;2022-09-09T00:06:20;2.78;;;1.17;;
63284;SDS011;49409;55.708;37.522;2022-09-09T00:08:58;2.72;;;1.25;;
63284;SDS011;49409;55.708;37.522;2022-09-09T00:15:13;4.45;;;1.63;;
63284;SDS011;49409;55.708;37.522;2022-09-09T00:17:42;2.47;;;1.33;;
63284;SDS011;49409;55.708;37.522;2022-09-09T00:23:20;2.40;;;1.30;;
63284;SDS011;49409;55.708;37.522;2022-09-09T00:25:52;2.97;;;1.50;;
63284;SDS011;49409;55.708;37.522;2022-09-09T00:28:30;2.88;;;1.40;;
63284;SDS011;49409;55.708;37.522;2022-09-09T00:31:08;2.47;;;1.10;;
63284;SDS011;49409;55.708;37.522;2022-09-09T00:33:38;4.57;;;1.33;;
63284;SDS011;49409;55.708;37.522;2022-09-09T00:36:07;2.90;;;1.27;;
63284;SDS011;49409;55.708;37.522;2022-09-09T00:38:51;2.90;;;1.42;;
63284;SDS011;49409;55.708;37.522;2022-09-09T00:41:24;2.97;;;1.42;;
63284;SDS011;49409;55.708;37.522;2022-09-09T00:49:31;3.03;;;1.20;;
63284;SDS011;49409;55.708;37.522;2022-09-09T00:54:40;1.90;;;1.00;;
63284;SDS011;49409;55.708;37.522;2022-09-09T00:57:17;1.83;;;1.20;;
63284;SDS011;49409;55.708;37.522;2022-09-09T01:11:22;5.18;;;2.00;;
63284;SDS011;49409;55.708;37.522;2022-09-09T01:13:58;3.25;;;1.20;;
63284;SDS011;49409;55.708;37.522;2022-09-09T01:16:29;2.42;;;1.60;;
63284;SDS011;49409;55.708;37.522;2022-09-09T01:18:56;3.45;;;1.35;;
63284;SDS011;49409;55.708;37.522;2022-09-09T01:24:37;2.47;;;1.23;;
63284;SDS011;49409;55.708;37.522;2022-09-09T01:27:07;4.22;;;1.85;;
63284;SDS011;49409;55.708;37.522;2022-09-09T01:29:34;3.38;;;1.48;;
63284;SDS011;49409;55.708;37.522;2022-09-09T01:35:03;3.58;;;1.80;;
63284;SDS011;49409;55.708;37.522;2022-09-09T01:37:30;2.90;;;1.52;;
63284;SDS011;49409;55.708;37.522;2022-09-09T01:39:56;2.67;;;1.60;;
63284;SDS011;49409;55.708;37.522;2022-09-09T01:42:21;4.18;;;1.80;;
63284;SDS011;49409;55.708;37.522;2022-09-09T01:44:47;2.83;;;1.40;;
63284;SDS011;49409;55.708;37.522;2022-09-09T01:47:13;3.70;;;1.60;;
63284;SDS011;49409;55.708;37.522;2022-09-09T01:49:40;4.05;;;1.80;;
63284;SDS011;49409;55.708;37.522;2022-09-09T01:52:05;3.25;;;1.73;;
63284;SDS011;49409;55.708;37.522;2022-09-09T01:54:31;3.30;;;1.30;;
63284;SDS011;49409;55.708;37.522;2022-09-09T02:00:09;4.32;;;1.60;;
63284;SDS011;49409;55.708;37.522;2022-09-09T02:02:44;2.53;;;1.60;;
63284;SDS011;49409;55.708;37.522;2022-09-09T02:08:29;2.50;;;1.30;;
63284;SDS011;49409;55.708;37.522;2022-09-09T02:10:53;3.85;;;1.80;;
63284;SDS011;49409;55.708;37.522;2022-09-09T02:13:25;3.38;;;1.60;;
63284;SDS011;49409;55.708;37.522;2022-09-09T02:21:21;3.28;;;1.70;;
63284;SDS011;49409;55.708;37.522;2022-09-09T02:23:48;4.63;;;1.70;;
63284;SDS011;49409;55.708;37.522;2022-09-09T02:26:17;2.75;;;1.77;;
63284;SDS011;49409;55.708;37.522;2022-09-09T02:28:49;3.17;;;1.67;;
63284;SDS011;49409;55.708;37.522;2022-09-09T02:31:18;4.47;;;2.20;;
63284;SDS011;49409;55.708;37.522;2022-09-09T02:33:49;3.28;;;1.70;;
63284;SDS011;49409;55.708;37.522;2022-09-09T02:36:18;2.13;;;1.65;;
63284;SDS011;49409;55.708;37.522;2022-09-09T02:38:47;2.88;;;1.55;;
63284;SDS011;49409;55.708;37.522;2022-09-09T02:41:19;1.95;;;1.50;;
63284;SDS011;49409;55.708;37.522;2022-09-09T02:43:48;4.10;;;1.85;;
63284;SDS011;49409;55.708;37.522;2022-09-09T02:49:10;3.75;;;1.73;;
63284;SDS011;49409;55.708;37.522;2022-09-09T02:56:47;4.35;;;2.15;;
63284;SDS011;49409;55.708;37.522;2022-09-09T02:59:16;4.25;;;2.00;;
63284;SDS011;49409;55.708;37.522;2022-09-09T03:01:43;3.30;;;1.67;;
63284;SDS011;49409;55.708;37.522;2022-09-09T03:04:09;3.03;;;1.67;;
63284;SDS011;49409;55.708;37.522;2022-09-09T03:06:35;4.10;;;1.95;;
63284;SDS011;49409;55.708;37.522;2022-09-09T03:09:00;2.83;;;1.83;;
63284;SDS011;49409;55.708;37.522;2022-09-09T03:11:27;3.10;;;1.60;;
63284;SDS011;49409;55.708;37.522;2022-09-09T03:13:53;3.08;;;1.67;;
63284;SDS011;49409;55.708;37.522;2022-09-09T03:16:21;3.83;;;1.60;;
63284;SDS011;49409;55.708;37.522;2022-09-09T03:18:49;2.97;;;1.60;;
63284;SDS011;49409;55.708;37.522;2022-09-09T03:21:15;2.90;;;1.60;;
63284;SDS011;49409;55.708;37.522;2022-09-09T03:23:40;3.70;;;1.90;;
63284;SDS011;49409;55.708;37.522;2022-09-09T03:26:06;4.75;;;1.85;;
63284;SDS011;49409;55.708;37.522;2022-09-09T03:28:32;3.90;;;1.70;;
63284;SDS011;49409;55.708;37.522;2022-09-09T03:31:01;3.03;;;1.90;;
63284;SDS011;49409;55.708;37.522;2022-09-09T03:33:30;3.15;;;1.60;;
63284;SDS011;49409;55.708;37.522;2022-09-09T03:35:56;3.30;;;1.70;;
63284;SDS011;49409;55.708;37.522;2022-09-09T03:38:25;3.60;;;2.00;;
63284;SDS011;49409;55.708;37.522;2022-09-09T03:40:51;3.22;;;1.85;;
63284;SDS011;49409;55.708;37.522;2022-09-09T03:43:21;2.45;;;1.42;;
63284;SDS011;49409;55.708;37.522;2022-09-09T03:45:47;3.08;;;1.85;;
63284;SDS011;49409;55.708;37.522;2022-09-09T03:48:13;3.92;;;2.25;;
63284;SDS011;49409;55.708;37.522;2022-09-09T03:50:50;3.45;;;1.75;;
63284;SDS011;49409;55.708;37.522;2022-09-09T03:53:17;3.13;;;1.50;;
63284;SDS011;49409;55.708;37.522;2022-09-09T03:55:45;3.42;;;1.65;;
63284;SDS011;49409;55.708;37.522;2022-09-09T03:58:12;2.35;;;1.83;;
63284;SDS011;49409;55.708;37.522;2022-09-09T04:00:41;2.40;;;1.45;;
63284;SDS011;49409;55.708;37.522;2022-09-09T04:03:09;2.97;;;1.60;;
63284;SDS011;49409;55.708;37.522;2022-09-09T04:05:35;3.60;;;1.77;;
63284;SDS011;49409;55.708;37.522;2022-09-09T04:08:05;4.28;;;1.65;;
63284;SDS011;49409;55.708;37.522;2022-09-09T04:10:31;3.22;;;2.28;;
63284;SDS011;49409;55.708;37.522;2022-09-09T04:12:57;3.00;;;1.55;;
63284;SDS011;49409;55.708;37.522;2022-09-09T04:15:24;3.85;;;1.88;;
63284;SDS011;49409;55.708;37.522;2022-09-09T04:17:49;1.73;;;1.30;;
63284;SDS011;49409;55.708;37.522;2022-09-09T04:20:15;4.68;;;1.80;;
63284;SDS011;49409;55.708;37.522;2022-09-09T04:22:41;3.10;;;1.65;;
63284;SDS011;49409;55.708;37.522;2022-09-09T04:25:06;3.55;;;1.83;;
63284;SDS011;49409;55.708;37.522;2022-09-09T04:27:32;2.70;;;1.58;;
63284;SDS011;49409;55.708;37.522;2022-09-09T04:29:58;3.75;;;1.70;;
63284;SDS011;49409;55.708;37.522;2022-09-09T04:32:23;4.22;;;1.73;;
63284;SDS011;49409;55.708;37.522;2022-09-09T04:34:52;4.00;;;1.65;;
63284;SDS011;49409;55.708;37.522;2022-09-09T04:37:17;3.92;;;1.83;;
63284;SDS011;49409;55.708;37.522;2022-09-09T04:39:43;3.85;;;1.52;;
63284;SDS011;49409;55.708;37.522;2022-09-09T04:42:08;3.13;;;1.90;;
63284;SDS011;49409;55.708;37.522;2022-09-09T04:44:34;3.58;;;1.60;;
63284;SDS011;49409;55.708;37.522;2022-09-09T04:46:59;3.13;;;1.73;;
63284;SDS011;49409;55.708;37.522;2022-09-09T04:49:25;5.35;;;1.75;;
63284;SDS011;49409;55.708;37.522;2022-09-09T04:51:51;3.67;;;1.58;;
63284;SDS011;49409;55.708;37.522;2022-09-09T04:54:17;5.03;;;1.90;;
63284;SDS011;49409;55.708;37.522;2022-09-09T04:56:42;4.30;;;1.90;;
63284;SDS011;49409;55.708;37.522;2022-09-09T04:59:08;3.13;;;1.70;;
63284;SDS011;49409;55.708;37.522;2022-09-09T05:01:35;3.25;;;1.63;;
63284;SDS011;49409;55.708;37.522;2022-09-09T05:04:01;3.72;;;1.88;;
63284;SDS011;49409;55.708;37.522;2022-09-09T05:06:27;3.40;;;1.77;;
63284;SDS011;49409;55.708;37.522;2022-09-09T05:08:54;4.63;;;1.75;;
63284;SDS011;49409;55.708;37.522;2022-09-09T05:11:20;2.65;;;1.60;;
63284;SDS011;49409;55.708;37.522;2022-09-09T05:13:48;4.15;;;1.85;;
63284;SDS011;49409;55.708;37.522;2022-09-09T05:16:15;3.67;;;1.67;;
63284;SDS011;49409;55.708;37.522;2022-09-09T05:18:41;3.10;;;1.60;;
63284;SDS011;49409;55.708;37.522;2022-09-09T05:21:11;3.15;;;1.65;;
63284;SDS011;49409;55.708;37.522;2022-09-09T05:23:38;2.47;;;1.40;;
63284;SDS011;49409;55.708;37.522;2022-09-09T05:26:04;2.35;;;1.50;;
63284;SDS011;49409;55.708;37.522;2022-09-09T05:28:30;4.80;;;1.88;;
63284;SDS011;49409;55.708;37.522;2022-09-09T05:31:00;2.97;;;1.52;;
63284;SDS011;49409;55.708;37.522;2022-09-09T05:33:33;3.90;;;1.92;;
63284;SDS011;49409;55.708;37.522;2022-09-09T05:36:06;3.38;;;1.40;;
63284;SDS011;49409;55.708;37.522;2022-09-09T05:38:34;2.58;;;1.48;;
63284;SDS011;49409;55.708;37.522;2022-09-09T05:41:00;1.42;;;1.20;;
63284;SDS011;49409;55.708;37.522;2022-09-09T05:43:27;2.17;;;1.20;;
63284;SDS011;49409;55.708;37.522;2022-09-09T05:48:33;2.85;;;1.60;;
63284;SDS011;49409;55.708;37.522;2022-09-09T05:51:00;3.38;;;1.30;;
63284;SDS011;49409;55.708;37.522;2022-09-09T05:53:27;2.42;;;1.30;;
63284;SDS011;49409;55.708;37.522;2022-09-09T05:56:04;2.47;;;1.48;;
63284;SDS011;49409;55.708;37.522;2022-09-09T05:58:34;3.13;;;1.38;;
63284;SDS011;49409;55.708;37.522;2022-09-09T06:01:03;2.58;;;1.40;;
63284;SDS011;49409;55.708;37.522;2022-09-09T06:03:37;2.75;;;1.20;;
63284;SDS011;49409;55.708;37.522;2022-09-09T06:06:05;4.60;;;1.65;;
63284;SDS011;49409;55.708;37.522;2022-09-09T06:08:33;3.38;;;1.40;;
63284;SDS011;49409;55.708;37.522;2022-09-09T06:11:12;2.40;;;1.15;;
63284;SDS011;49409;55.708;37.522;2022-09-09T06:13:40;2.58;;;1.20;;
63284;SDS011;49409;55.708;37.522;2022-09-09T06:16:09;3.47;;;0.93;;
63284;SDS011;49409;55.708;37.522;2022-09-09T06:18:36;3.03;;;1.50;;
63284;SDS011;49409;55.708;37.522;2022-09-09T06:21:04;2.97;;;1.27;;
63284;SDS011;49409;55.708;37.522;2022-09-09T06:23:32;3.67;;;1.40;;
63284;SDS011;49409;55.708;37.522;2022-09-09T06:28:33;2.22;;;0.77;;
63284;SDS011;49409;55.708;37.522;2022-09-09T06:31:03;2.55;;;0.90;;
63284;SDS011;49409;55.708;37.522;2022-09-09T06:33:32;1.92;;;0.90;;
63284;SDS011;49409;55.708;37.522;2022-09-09T06:36:00;0.95;;;0.60;;
63284;SDS011;49409;55.708;37.522;2022-09-09T06:38:26;2.70;;;0.80;;
63284;SDS011;49409;55.708;37.522;2022-09-09T06:40:53;2.55;;;0.95;;
63284;SDS011;49409;55.708;37.522;2022-09-09T06:43:21;1.75;;;0.70;;
63284;SDS011;49409;55.708;37.522;2022-09-09T06:45:54;0.73;;;0.68;;
63284;SDS011;49409;55.708;37.522;2022-09-09T06:48:23;1.50;;;0.70;;
63284;SDS011;49409;55.708;37.522;2022-09-09T06:50:51;1.30;;;0.70;;
63284;SDS011;49409;55.708;37.522;2022-09-09T06:53:38;1.42;;;0.70;;
63284;SDS011;49409;55.708;37.522;2022-09-09T06:59:08;1.50;;;0.75;;
63284;SDS011;49409;55.708;37.522;2022-09-09T07:05:14;2.10;;;0.90;;
63284;SDS011;49409;55.708;37.522;2022-09-09T07:07:40;2.08;;;0.88;;
63284;SDS011;49409;55.708;37.522;2022-09-09T07:10:06;0.60;;;0.60;;
63284;SDS011;49409;55.708;37.522;2022-09-09T07:12:32;1.33;;;0.65;;
63284;SDS011;49409;55.708;37.522;2022-09-09T07:14:58;1.42;;;0.90;;
63284;SDS011;49409;55.708;37.522;2022-09-09T07:17:23;0.85;;;0.70;;
63284;SDS011;49409;55.708;37.522;2022-09-09T07:19:49;0.95;;;0.60;;
63284;SDS011;49409;55.708;37.522;2022-09-09T07:22:14;2.47;;;0.85;;
63284;SDS011;49409;55.708;37.522;2022-09-09T07:24:41;0.70;;;0.65;;
63284;SDS011;49409;55.708;37.522;2022-09-09T07:27:06;3.92;;;1.10;;
63284;SDS011;49409;55.708;37.522;2022-09-09T07:29:32;2.90;;;0.80;;
63284;SDS011;49409;55.708;37.522;2022-09-09T07:31:58;0.65;;;0.60;;
63284;SDS011;49409;55.708;37.522;2022-09-09T07:34:23;2.60;;;0.70;;
63284;SDS011;49409;55.708;37.522;2022-09-09T07:36:49;1.38;;;0.82;;
63284;SDS011;49409;55.708;37.522;2022-09-09T07:39:15;0.65;;;0.63;;
63284;SDS011;49409;55.708;37.522;2022-09-09T07:41:43;0.93;;;0.60;;
63284;SDS011;49409;55.708;37.522;2022-09-09T07:44:11;0.70;;;0.70;;
63284;SDS011;49409;55.708;37.522;2022-09-09T07:46:42;1.75;;;0.68;;
63284;SDS011;49409;55.708;37.522;2022-09-09T07:49:10;2.72;;;0.73;;
63284;SDS011;49409;55.708;37.522;2022-09-09T07:51:40;2.05;;;1.15;;
63284;SDS011;49409;55.708;37.522;2022-09-09T07:54:08;0.73;;;0.50;;
63284;SDS011;49409;55.708;37.522;2022-09-09T07:56:36;0.38;;;0.38;;
63284;SDS011;49409;55.708;37.522;2022-09-09T07:59:03;1.80;;;0.50;;
63284;SDS011;49409;55.708;37.522;2022-09-09T08:01:33;1.20;;;0.50;;
63284;SDS011;49409;55.708;37.522;2022-09-09T08:04:05;0.75;;;0.60;;
63284;SDS011;49409;55.708;37.522;2022-09-09T08:06:36;0.85;;;0.40;;
63284;SDS011;49409;55.708;37.522;2022-09-09T08:09:03;0.70;;;0.50;;
63284;SDS011;49409;55.708;37.522;2022-09-09T08:11:29;0.95;;;0.60;;
63284;SDS011;49409;55.708;37.522;2022-09-09T08:13:55;0.77;;;0.70;;
63284;SDS011;49409;55.708;37.522;2022-09-09T08:16:23;1.67;;;0.70;;
63284;SDS011;49409;55.708;37.522;2022-09-09T08:18:51;1.00;;;0.70;;
63284;SDS011;49409;55.708;37.522;2022-09-09T08:24:32;0.75;;;0.68;;
63284;SDS011;49409;55.708;37.522;2022-09-09T08:26:58;1.05;;;0.73;;
63284;SDS011;49409;55.708;37.522;2022-09-09T08:29:24;0.68;;;0.50;;
63284;SDS011;49409;55.708;37.522;2022-09-09T08:31:53;3.10;;;0.95;;
63284;SDS011;49409;55.708;37.522;2022-09-09T08:34:22;1.77;;;0.90;;
63284;SDS011;49409;55.708;37.522;2022-09-09T08:36:49;0.57;;;0.52;;
63284;SDS011;49409;55.708;37.522;2022-09-09T08:39:16;2.78;;;0.70;;
63284;SDS011;49409;55.708;37.522;2022-09-09T08:52:55;0.88;;;0.70;;
63284;SDS011;49409;55.708;37.522;2022-09-09T08:57:51;0.77;;;0.70;;
63284;SDS011;49409;55.708;37.522;2022-09-09T09:00:20;0.98;;;0.70;;
63284;SDS011;49409;55.708;37.522;2022-09-09T09:03:02;0.80;;;0.80;;
63284;SDS011;49409;55.708;37.522;2022-09-09T09:08:25;1.40;;;0.90;;
63284;SDS011;49409;55.708;37.522;2022-09-09T09:11:11;0.98;;;0.65;;
63284;SDS011;49409;55.708;37.522;2022-09-09T09:13:54;0.85;;;0.80;;
63284;SDS011;49409;55.708;37.522;2022-09-09T09:19:03;1.60;;;0.70;;
63284;SDS011;49409;55.708;37.522;2022-09-09T09:21:45;2.72;;;0.90;;
63284;SDS011;49409;55.708;37.522;2022-09-09T09:26:52;1.73;;;0.80;;
63284;SDS011;49409;55.708;37.522;2022-09-09T09:29:18;0.85;;;0.80;;
63284;SDS011;49409;55.708;37.522;2022-09-09T09:31:51;1.75;;;1.05;;
63284;SDS011;49409;55.708;37.522;2022-09-09T09:34:21;1.23;;;0.63;;
63284;SDS011;49409;55.708;37.522;2022-09-09T09:39:30;1.65;;;0.75;;
63284;SDS011;49409;55.708;37.522;2022-09-09T09:42:09;1.35;;;0.60;;
63284;SDS011;49409;55.708;37.522;2022-09-09T09:44:39;1.73;;;0.82;;
63284;SDS011;49409;55.708;37.522;2022-09-09T09:47:11;0.57;;;0.57;;
63284;SDS011;49409;55.708;37.522;2022-09-09T09:49:38;2.40;;;0.93;;
63284;SDS011;49409;55.708;37.522;2022-09-09T09:52:05;1.15;;;0.90;;
63284;SDS011;49409;55.708;37.522;2022-09-09T09:54:33;2.55;;;0.98;;
63284;SDS011;49409;55.708;37.522;2022-09-09T09:57:13;1.00;;;0.63;;
63284;SDS011;49409;55.708;37.522;2022-09-09T09:59:41;1.23;;;0.68;;
63284;SDS011;49409;55.708;37.522;2022-09-09T10:02:18;1.58;;;0.77;;
63284;SDS011;49409;55.708;37.522;2022-09-09T10:04:46;1.15;;;0.55;;
63284;SDS011;49409;55.708;37.522;2022-09-09T10:07:12;1.75;;;0.82;;
63284;SDS011;49409;55.708;37.522;2022-09-09T10:09:42;1.48;;;0.70;;
63284;SDS011;49409;55.708;37.522;2022-09-09T10:20:27;1.77;;;0.75;;
63284;SDS011;49409;55.708;37.522;2022-09-09T10:23:05;1.70;;;0.80;;
63284;SDS011;49409;55.708;37.522;2022-09-09T10:26:00;1.60;;;0.88;;
63284;SDS011;49409;55.708;37.522;2022-09-09T10:33:39;0.80;;;0.80;;
63284;SDS011;49409;55.708;37.522;2022-09-09T10:36:13;0.98;;;0.90;;
63284;SDS011;49409;55.708;37.522;2022-09-09T10:39:04;1.67;;;0.75;;
63284;SDS011;49409;55.708;37.522;2022-09-09T10:55:19;1.17;;;0.70;;
63284;SDS011;49409;55.708;37.522;2022-09-09T10:57:50;1.38;;;0.60;;
63284;SDS011;49409;55.708;37.522;2022-09-09T11:00:22;0.50;;;0.50;;
63284;SDS011;49409;55.708;37.522;2022-09-09T11:03:01;2.00;;;1.05;;
63284;SDS011;49409;55.708;37.522;2022-09-09T11:08:18;2.38;;;1.05;;
63284;SDS011;49409;55.708;37.522;2022-09-09T11:11:08;2.40;;;1.00;;
63284;SDS011;49409;55.708;37.522;2022-09-09T11:13:39;2.25;;;1.02;;
63284;SDS011;49409;55.708;37.522;2022-09-09T11:18:48;1.58;;;0.68;;
63284;SDS011;49409;55.708;37.522;2022-09-09T11:21:22;1.73;;;0.80;;
63284;SDS011;49409;55.708;37.522;2022-09-09T11:23:54;2.05;;;0.85;;
63284;SDS011;49409;55.708;37.522;2022-09-09T11:26:29;1.85;;;0.63;;
63284;SDS011;49409;55.708;37.522;2022-09-09T11:32:09;1.55;;;0.77;;
63284;SDS011;49409;55.708;37.522;2022-09-09T11:39:36;0.60;;;0.52;;
63284;SDS011;49409;55.708;37.522;2022-09-09T11:42:23;1.30;;;0.80;;
63284;SDS011;49409;55.708;37.522;2022-09-09T11:44:49;2.53;;;0.90;;
63284;SDS011;49409;55.708;37.522;2022-09-09T11:47:18;1.58;;;0.73;;
63284;SDS011;49409;55.708;37.522;2022-09-09T11:50:40;1.23;;;0.90;;
63284;SDS011;49409;55.708;37.522;2022-09-09T11:52:44;1.13;;;0.70;;
63284;SDS011;49409;55.708;37.522;2022-09-09T11:55:27;0.80;;;0.70;;
63284;SDS011;49409;55.708;37.522;2022-09-09T11:57:59;0.98;;;0.60;;
63284;SDS011;49409;55.708;37.522;2022-09-09T12:00:39;0.52;;;0.40;;
63284;SDS011;49409;55.708;37.522;2022-09-09T12:03:31;1.13;;;0.65;;
63284;SDS011;49409;55.708;37.522;2022-09-09T12:08:40;3.63;;;0.82;;
63284;SDS011;49409;55.708;37.522;2022-09-09T12:11:10;2.17;;;0.70;;
63284;SDS011;49409;55.708;37.522;2022-09-09T12:13:36;0.82;;;0.70;;
63284;SDS011;49409;55.708;37.522;2022-09-09T12:16:03;0.90;;;0.80;;
63284;SDS011;49409;55.708;37.522;2022-09-09T12:18:34;1.42;;;0.70;;
63284;SDS011;49409;55.708;37.522;2022-09-09T12:23:36;1.52;;;0.88;;
63284;SDS011;49409;55.708;37.522;2022-09-09T12:36:47;1.75;;;0.88;;
63284;SDS011;49409;55.708;37.522;2022-09-09T12:39:22;1.73;;;0.85;;
63284;SDS011;49409;55.708;37.522;2022-09-09T12:41:55;1.45;;;0.63;;
63284;SDS011;49409;55.708;37.522;2022-09-09T12:44:22;0.57;;;0.50;;
63284;SDS011;49409;55.708;37.522;2022-09-09T12:46:49;2.10;;;0.60;;
63284;SDS011;49409;55.708;37.522;2022-09-09T12:49:26;1.48;;;1.00;;
63284;SDS011;49409;55.708;37.522;2022-09-09T12:52:04;1.02;;;0.70;;
63284;SDS011;49409;55.708;37.522;2022-09-09T12:54:36;2.85;;;0.75;;
63284;SDS011;49409;55.708;37.522;2022-09-09T12:57:03;2.17;;;0.80;;
63284;SDS011;49409;55.708;37.522;2022-09-09T12:59:37;1.00;;;0.70;;
63284;SDS011;49409;55.708;37.522;2022-09-09T13:04:47;1.58;;;0.80;;
63284;SDS011;49409;55.708;37.522;2022-09-09T13:07:13;1.33;;;0.80;;
63284;SDS011;49409;55.708;37.522;2022-09-09T13:09:41;2.20;;;1.65;;
63284;SDS011;49409;55.708;37.522;2022-09-09T13:12:09;1.52;;;0.65;;
63284;SDS011;49409;55.708;37.522;2022-09-09T13:14:38;0.93;;;0.70;;
63284;SDS011;49409;55.708;37.522;2022-09-09T13:17:15;1.15;;;0.70;;
63284;SDS011;49409;55.708;37.522;2022-09-09T13:19:48;1.85;;;0.82;;
63284;SDS011;49409;55.708;37.522;2022-09-09T13:22:36;0.90;;;0.73;;
63284;SDS011;49409;55.708;37.522;2022-09-09T13:27:34;1.05;;;0.60;;
63284;SDS011;49409;55.708;37.522;2022-09-09T13:30:23;1.73;;;0.82;;
63284;SDS011;49409;55.708;37.522;2022-09-09T13:35:55;1.35;;;0.80;;
63284;SDS011;49409;55.708;37.522;2022-09-09T13:38:22;2.70;;;0.68;;
63284;SDS011;49409;55.708;37.522;2022-09-09T13:43:43;0.98;;;0.70;;
63284;SDS011;49409;55.708;37.522;2022-09-09T13:49:00;0.43;;;0.40;;
63284;SDS011;49409;55.708;37.522;2022-09-09T13:51:46;0.88;;;0.50;;
63284;SDS011;49409;55.708;37.522;2022-09-09T13:54:14;0.95;;;0.60;;
63284;SDS011;49409;55.708;37.522;2022-09-09T13:56:42;0.95;;;0.63;;
63284;SDS011;49409;55.708;37.522;2022-09-09T13:59:12;0.63;;;0.47;;
63284;SDS011;49409;55.708;37.522;2022-09-09T14:01:38;2.63;;;0.90;;
63284;SDS011;49409;55.708;37.522;2022-09-09T14:04:04;1.90;;;0.60;;
63284;SDS011;49409;55.708;37.522;2022-09-09T14:06:34;1.85;;;0.70;;
63284;SDS011;49409;55.708;37.522;2022-09-09T14:09:03;0.60;;;0.60;;
63284;SDS011;49409;55.708;37.522;2022-09-09T14:11:29;2.63;;;0.73;;
63284;SDS011;49409;55.708;37.522;2022-09-09T14:13:55;1.02;;;0.60;;
63284;SDS011;49409;55.708;37.522;2022-09-09T14:16:21;0.52;;;0.50;;
63284;SDS011;49409;55.708;37.522;2022-09-09T14:18:46;1.02;;;0.70;;
63284;SDS011;49409;55.708;37.522;2022-09-09T14:21:12;2.20;;;0.90;;
63284;SDS011;49409;55.708;37.522;2022-09-09T14:23:41;2.83;;;1.30;;
63284;SDS011;49409;55.708;37.522;2022-09-09T14:26:07;2.47;;;1.02;;
63284;SDS011;49409;55.708;37.522;2022-09-09T14:28:33;2.15;;;1.20;;
63284;SDS011;49409;55.708;37.522;2022-09-09T14:31:00;3.35;;;1.30;;
63284;SDS011;49409;55.708;37.522;2022-09-09T14:33:27;3.17;;;1.40;;
63284;SDS011;49409;55.708;37.522;2022-09-09T14:35:56;4.25;;;1.60;;
63284;SDS011;49409;55.708;37.522;2022-09-09T14:38:30;3.17;;;1.20;;
63284;SDS011;49409;55.708;37.522;2022-09-09T14:40:59;3.75;;;1.40;;
63284;SDS011;49409;55.708;37.522;2022-09-09T14:43:28;3.28;;;1.40;;
63284;SDS011;49409;55.708;37.522;2022-09-09T14:45:55;4.07;;;1.70;;
63284;SDS011;49409;55.708;37.522;2022-09-09T14:48:20;5.20;;;2.15;;
63284;SDS011;49409;55.708;37.522;2022-09-09T14:50:46;3.83;;;1.88;;
63284;SDS011;49409;55.708;37.522;2022-09-09T14:53:11;4.60;;;2.15;;
63284;SDS011;49409;55.708;37.522;2022-09-09T14:55:37;4.25;;;2.25;;
63284;SDS011;49409;55.708;37.522;2022-09-09T14:58:03;3.53;;;1.98;;
63284;SDS011;49409;55.708;37.522;2022-09-09T15:00:30;3.45;;;1.80;;
63284;SDS011;49409;55.708;37.522;2022-09-09T15:02:56;2.88;;;1.38;;
63284;SDS011;49409;55.708;37.522;2022-09-09T15:05:21;3.20;;;1.52;;
63284;SDS011;49409;55.708;37.522;2022-09-09T15:07:47;3.65;;;1.30;;
63284;SDS011;49409;55.708;37.522;2022-09-09T15:10:15;2.33;;;1.25;;
63284;SDS011;49409;55.708;37.522;2022-09-09T15:12:42;3.95;;;1.70;;
63284;SDS011;49409;55.708;37.522;2022-09-09T15:15:08;2.17;;;1.00;;
63284;SDS011;49409;55.708;37.522;2022-09-09T15:17:34;4.30;;;1.50;;
63284;SDS011;49409;55.708;37.522;2022-09-09T15:20:02;1.80;;;1.08;;
63284;SDS011;49409;55.708;37.522;2022-09-09T15:22:30;1.48;;;1.10;;
63284;SDS011;49409;55.708;37.522;2022-09-09T15:24:56;2.15;;;0.95;;
63284;SDS011;49409;55.708;37.522;2022-09-09T15:27:22;2.20;;;1.13;;
63284;SDS011;49409;55.708;37.522;2022-09-09T15:29:48;1.40;;;1.17;;
63284;SDS011;49409;55.708;37.522;2022-09-09T15:32:15;3.22;;;1.30;;
63284;SDS011;49409;55.708;37.522;2022-09-09T15:34:40;2.67;;;1.20;;
63284;SDS011;49409;55.708;37.522;2022-09-09T15:37:09;1.90;;;0.95;;
63284;SDS011;49409;55.708;37.522;2022-09-09T15:39:36;1.83;;;1.00;;
63284;SDS011;49409;55.708;37.522;2022-09-09T15:42:01;2.67;;;1.13;;
63284;SDS011;49409;55.708;37.522;2022-09-09T15:44:27;1.73;;;0.90;;
63284;SDS011;49409;55.708;37.522;2022-09-09T15:46:52;2.97;;;1.45;;
63284;SDS011;49409;55.708;37.522;2022-09-09T15:49:25;3.03;;;1.33;;
63284;SDS011;49409;55.708;37.522;2022-09-09T15:51:54;1.60;;;0.85;;
63284;SDS011;49409;55.708;37.522;2022-09-09T15:54:23;1.88;;;1.20;;
63284;SDS011;49409;55.708;37.522;2022-09-09T15:56:51;1.58;;;1.17;;
63284;SDS011;49409;55.708;37.522;2022-09-09T15:59:21;3.50;;;1.20;;
63284;SDS011;49409;55.708;37.522;2022-09-09T16:01:48;2.10;;;1.17;;
63284;SDS011;49409;55.708;37.522;2022-09-09T16:04:16;3.03;;;1.30;;
63284;SDS011;49409;55.708;37.522;2022-09-09T16:06:54;2.17;;;1.38;;
63284;SDS011;49409;55.708;37.522;2022-09-09T16:09:23;2.58;;;1.20;;
63284;SDS011;49409;55.708;37.522;2022-09-09T16:11:49;1.58;;;1.10;;
63284;SDS011;49409;55.708;37.522;2022-09-09T16:14:14;2.80;;;0.98;;
63284;SDS011;49409;55.708;37.522;2022-09-09T16:16:41;3.53;;;1.02;;
63284;SDS011;49409;55.708;37.522;2022-09-09T16:19:08;3.55;;;1.10;;
63284;SDS011;49409;55.708;37.522;2022-09-09T16:21:37;2.15;;;0.98;;
63284;SDS011;49409;55.708;37.522;2022-09-09T16:24:05;2.75;;;1.15;;
63284;SDS011;49409;55.708;37.522;2022-09-09T16:26:32;2.58;;;1.25;;
63284;SDS011;49409;55.708;37.522;2022-09-09T16:28:59;3.58;;;1.35;;
63284;SDS011;49409;55.708;37.522;2022-09-09T16:31:26;2.92;;;1.13;;
63284;SDS011;49409;55.708;37.522;2022-09-09T16:33:52;4.38;;;1.20;;
63284;SDS011;49409;55.708;37.522;2022-09-09T16:36:22;2.30;;;1.25;;
63284;SDS011;49409;55.708;37.522;2022-09-09T16:38:52;2.60;;;1.30;;
63284;SDS011;49409;55.708;37.522;2022-09-09T16:41:20;3.13;;;1.42;;
63284;SDS011;49409;55.708;37.522;2022-09-09T16:43:47;4.10;;;1.73;;
63284;SDS011;49409;55.708;37.522;2022-09-09T16:46:17;3.45;;;1.60;;
63284;SDS011;49409;55.708;37.522;2022-09-09T16:48:44;3.65;;;1.55;;
63284;SDS011;49409;55.708;37.522;2022-09-09T16:51:13;4.75;;;1.40;;
63284;SDS011;49409;55.708;37.522;2022-09-09T16:53:41;4.05;;;1.60;;
63284;SDS011;49409;55.708;37.522;2022-09-09T16:56:09;2.65;;;1.40;;
63284;SDS011;49409;55.708;37.522;2022-09-09T16:58:41;2.50;;;1.25;;
63284;SDS011;49409;55.708;37.522;2022-09-09T17:01:10;3.25;;;1.63;;
63284;SDS011;49409;55.708;37.522;2022-09-09T17:03:39;3.97;;;1.75;;
63284;SDS011;49409;55.708;37.522;2022-09-09T17:06:08;2.97;;;1.35;;
63284;SDS011;49409;55.708;37.522;2022-09-09T17:08:35;3.42;;;1.50;;
63284;SDS011;49409;55.708;37.522;2022-09-09T17:11:00;5.68;;;1.83;;
63284;SDS011;49409;55.708;37.522;2022-09-09T17:13:26;2.45;;;1.60;;
63284;SDS011;49409;55.708;37.522;2022-09-09T17:15:51;5.72;;;1.88;;
63284;SDS011;49409;55.708;37.522;2022-09-09T17:18:17;3.38;;;1.75;;
63284;SDS011;49409;55.708;37.522;2022-09-09T17:20:42;2.60;;;1.60;;
63284;SDS011;49409;55.708;37.522;2022-09-09T17:23:09;4.25;;;1.65;;
63284;SDS011;49409;55.708;37.522;2022-09-09T17:25:36;3.22;;;1.55;;
63284;SDS011;49409;55.708;37.522;2022-09-09T17:28:02;6.97;;;1.77;;
63284;SDS011;49409;55.708;37.522;2022-09-09T17:30:29;5.47;;;1.70;;